createdAt,value
2022-10-01T00:02:18.549Z,100.00
2022-10-01T00:07:20.840Z,100.00
2022-10-01T00:12:23.387Z,100.00
2022-10-01T00:17:29.984Z,100.00
2022-10-01T00:22:37.239Z,100.00
2022-10-01T00:27:50.669Z,100.00
2022-10-01T00:32:55.075Z,100.00
2022-10-01T00:38:01.728Z,100.00
2022-10-01T00:43:22.601Z,100.00
2022-10-01T00:48:29.704Z,100.00
2022-10-01T00:53:32.996Z,100.00
2022-10-01T00:58:36.225Z,100.00
2022-10-01T01:03:52.613Z,100.00
2022-10-01T01:08:56.271Z,100.00
2022-10-01T01:14:43.831Z,100.00
2022-10-01T01:20:21.155Z,100.00
2022-10-01T01:25:35.985Z,100.00
2022-10-01T01:30:42.771Z,100.00
2022-10-01T01:36:00.240Z,100.00
2022-10-01T01:41:12.311Z,100.00
2022-10-01T01:46:33.858Z,100.00
2022-10-01T01:51:49.247Z,100.00
2022-10-01T01:57:18.251Z,100.00
2022-10-01T02:02:28.091Z,100.00
2022-10-01T02:07:43.791Z,100.00
2022-10-01T02:13:38.822Z,100.00
2022-10-01T02:18:57.735Z,100.00
2022-10-01T02:24:31.320Z,100.00
2022-10-01T02:29:40.975Z,100.00
2022-10-01T02:34:46.232Z,100.00
2022-10-01T02:39:53.033Z,100.00
2022-10-01T02:45:02.657Z,100.00
2022-10-01T02:50:57.830Z,100.00
2022-10-01T02:56:05.242Z,100.00
2022-10-01T03:01:15.437Z,100.00
2022-10-01T03:06:23.918Z,100.00
2022-10-01T03:11:30.432Z,100.00
2022-10-01T03:16:33.644Z,100.00
2022-10-01T03:22:08.603Z,100.00
2022-10-01T03:27:14.371Z,100.00
2022-10-01T03:33:03.647Z,100.00
2022-10-01T03:38:29.412Z,100.00
2022-10-01T03:43:59.658Z,100.00
2022-10-01T03:49:03.780Z,100.00
2022-10-01T03:54:22.687Z,100.00
2022-10-01T03:59:28.749Z,100.00
2022-10-01T04:05:20.133Z,100.00
2022-10-01T04:10:22.587Z,100.00
2022-10-01T04:15:28.405Z,100.00
2022-10-01T04:20:56.819Z,100.00
2022-10-01T04:26:11.887Z,100.00
2022-10-01T04:31:35.558Z,100.00
2022-10-01T04:36:38.446Z,100.00
2022-10-01T04:41:49.124Z,100.00
2022-10-01T04:46:54.230Z,100.00
2022-10-01T04:52:01.034Z,100.00
2022-10-01T04:57:04.672Z,100.00
2022-10-01T05:02:10.613Z,100.00
2022-10-01T05:07:30.289Z,100.00
2022-10-01T05:13:11.067Z,100.00
2022-10-01T05:18:14.890Z,100.00
2022-10-01T05:23:25.155Z,100.00
2022-10-01T05:28:50.332Z,100.00
2022-10-01T05:33:56.924Z,100.00
2022-10-01T05:39:15.267Z,100.00
2022-10-01T05:45:01.308Z,100.00
2022-10-01T05:50:13.110Z,100.00
2022-10-01T05:55:27.766Z,100.00
2022-10-01T06:00:35.972Z,100.00
2022-10-01T06:05:44.992Z,100.00
2022-10-01T06:10:51.846Z,100.00
2022-10-01T06:15:57.013Z,100.00
2022-10-01T06:21:01.755Z,100.00
2022-10-01T06:26:19.764Z,100.00
2022-10-01T06:31:39.302Z,100.00
2022-10-01T06:37:07.143Z,100.00
2022-10-01T06:42:11.163Z,100.00
2022-10-01T06:47:13.524Z,100.00
2022-10-01T06:52:53.197Z,100.00
2022-10-01T06:58:01.415Z,100.00
2022-10-01T07:03:14.090Z,100.00
2022-10-01T07:08:42.020Z,100.00
2022-10-01T07:13:44.512Z,100.00
2022-10-01T07:18:47.623Z,100.00
2022-10-01T07:23:54.497Z,100.00
2022-10-01T07:28:59.555Z,100.00
2022-10-01T07:34:04.223Z,100.00
2022-10-01T07:39:25.297Z,100.00
2022-10-01T07:45:14.932Z,100.00
2022-10-01T07:50:20.734Z,100.00
2022-10-01T07:55:26.987Z,100.00
2022-10-01T08:00:33.029Z,100.00
2022-10-01T08:05:41.492Z,100.00
2022-10-01T08:10:44.637Z,100.00
2022-10-01T08:15:59.393Z,100.00
2022-10-01T08:21:23.840Z,100.00
2022-10-01T08:26:54.457Z,100.00
2022-10-01T08:32:21.970Z,100.00
2022-10-01T08:37:29.396Z,100.00
2022-10-01T08:42:44.972Z,100.00
2022-10-01T08:48:01.584Z,100.00
2022-10-01T08:53:13.949Z,100.00
2022-10-01T08:58:25.865Z,100.00
2022-10-01T09:03:33.614Z,100.00
2022-10-01T09:08:54.192Z,100.00
2022-10-01T09:14:32.506Z,100.00
2022-10-01T09:20:08.442Z,100.00
2022-10-01T09:26:00.156Z,100.00
2022-10-01T09:31:52.051Z,100.00
2022-10-01T09:37:06.951Z,100.00
2022-10-01T09:42:39.887Z,100.00
2022-10-01T09:47:48.740Z,100.00
2022-10-01T09:53:17.586Z,100.00
2022-10-01T09:58:23.340Z,100.00
2022-10-01T10:03:38.017Z,100.00
2022-10-01T10:09:18.329Z,100.00
2022-10-01T10:14:41.338Z,100.00
2022-10-01T10:20:03.195Z,100.00
2022-10-01T10:25:32.576Z,100.00
2022-10-01T10:30:37.174Z,99.49
2022-10-01T10:35:43.254Z,98.43
2022-10-01T10:40:46.797Z,98.11
2022-10-01T10:45:56.856Z,97.30
2022-10-01T10:51:02.574Z,97.32
2022-10-01T10:56:06.544Z,96.50
2022-10-01T11:01:33.116Z,96.07
2022-10-01T11:06:55.024Z,96.56
2022-10-01T11:12:27.793Z,93.16
2022-10-01T11:18:10.652Z,91.67
2022-10-01T11:23:37.703Z,91.92
2022-10-01T11:29:09.036Z,91.49
2022-10-01T11:34:48.824Z,90.29
2022-10-01T11:40:03.417Z,90.94
2022-10-01T11:45:32.127Z,90.35
2022-10-01T11:50:39.816Z,90.49
2022-10-01T11:56:22.974Z,90.28
2022-10-01T12:02:01.307Z,89.13
2022-10-01T12:07:13.472Z,88.86
2022-10-01T12:12:42.797Z,88.89
2022-10-01T12:18:19.425Z,89.49
2022-10-01T12:23:50.498Z,89.50
2022-10-01T12:29:24.713Z,88.99
2022-10-01T12:34:53.859Z,89.38
2022-10-01T12:40:18.047Z,89.25
2022-10-01T12:45:43.919Z,88.22
2022-10-01T12:51:16.494Z,88.36
2022-10-01T12:57:11.433Z,88.30
2022-10-01T13:02:45.982Z,88.70
2022-10-01T13:08:38.286Z,88.81
2022-10-01T13:13:43.008Z,88.55
2022-10-01T13:19:34.644Z,88.58
2022-10-01T13:25:13.278Z,89.15
2022-10-01T13:31:11.299Z,89.36
2022-10-01T13:36:49.559Z,89.06
2022-10-01T13:41:58.560Z,89.23
2022-10-01T13:47:07.055Z,89.33
2022-10-01T13:52:22.016Z,89.06
2022-10-01T13:58:04.940Z,88.52
2022-10-01T14:03:23.635Z,88.25
2022-10-01T14:08:31.244Z,88.40
2022-10-01T14:14:01.706Z,88.15
2022-10-01T14:19:04.744Z,87.86
2022-10-01T14:24:28.622Z,88.07
2022-10-01T14:30:11.799Z,88.17
2022-10-01T14:35:32.979Z,88.00
2022-10-01T14:40:41.279Z,87.85
2022-10-01T14:46:14.032Z,88.05
2022-10-01T14:51:51.587Z,88.25
2022-10-01T14:56:53.899Z,88.15
2022-10-01T15:02:01.904Z,87.53
2022-10-01T15:07:12.803Z,86.34
2022-10-01T15:12:40.423Z,85.98
2022-10-01T15:17:43.222Z,86.06
2022-10-01T15:23:01.091Z,86.06
2022-10-01T15:28:14.580Z,86.11
2022-10-01T15:33:50.221Z,85.99
2022-10-01T15:39:13.997Z,86.47
2022-10-01T15:44:38.570Z,86.95
2022-10-01T15:49:40.909Z,87.27
2022-10-01T15:55:05.268Z,87.66
2022-10-01T16:00:22.387Z,87.95
2022-10-01T16:05:36.260Z,88.32
2022-10-01T16:10:45.766Z,88.63
2022-10-01T16:16:20.766Z,89.04
2022-10-01T16:22:18.864Z,89.60
2022-10-01T16:27:31.799Z,89.99
2022-10-01T16:32:52.134Z,90.36
2022-10-01T16:37:58.047Z,90.72
2022-10-01T16:43:11.083Z,91.07
2022-10-01T16:48:19.719Z,91.21
2022-10-01T16:53:29.643Z,91.35
2022-10-01T16:58:32.712Z,91.70
2022-10-01T17:03:35.854Z,91.91
2022-10-01T17:08:38.291Z,92.25
2022-10-01T17:13:43.682Z,92.57
2022-10-01T17:18:48.758Z,92.82
2022-10-01T17:24:02.317Z,92.94
2022-10-01T17:29:06.907Z,93.13
2022-10-01T17:34:09.012Z,93.10
2022-10-01T17:39:11.208Z,92.55
2022-10-01T17:44:36.983Z,90.89
2022-10-01T17:49:39.686Z,88.89
2022-10-01T17:54:41.788Z,87.88
2022-10-01T17:59:44.047Z,88.20
2022-10-01T18:04:47.090Z,88.51
2022-10-01T18:09:55.775Z,88.74
2022-10-01T18:14:58.146Z,89.15
2022-10-01T18:20:00.398Z,89.50
2022-10-01T18:25:03.647Z,89.70
2022-10-01T18:30:10.380Z,90.21
2022-10-01T18:35:41.425Z,90.54
2022-10-01T18:40:56.535Z,91.08
2022-10-01T18:46:43.187Z,91.54
2022-10-01T18:52:25.852Z,92.48
2022-10-01T18:58:01.561Z,92.71
2022-10-01T19:03:35.851Z,92.89
2022-10-01T19:09:09.947Z,92.81
2022-10-01T19:14:39.100Z,93.08
2022-10-01T19:20:53.673Z,93.27
2022-10-01T19:26:10.069Z,93.69
2022-10-01T19:31:44.354Z,94.04
2022-10-01T19:37:12.558Z,94.32
2022-10-01T19:42:29.711Z,94.71
2022-10-01T19:48:06.503Z,95.32
2022-10-01T19:53:24.055Z,95.65
2022-10-01T19:58:26.927Z,96.02
2022-10-01T20:03:44.660Z,96.43
2022-10-01T20:09:20.274Z,96.97
2022-10-01T20:15:07.261Z,97.55
2022-10-01T20:20:16.299Z,97.94
2022-10-01T20:25:33.955Z,98.17
2022-10-01T20:31:05.767Z,98.43
2022-10-01T20:36:17.552Z,98.80
2022-10-01T20:41:30.275Z,99.35
2022-10-01T20:46:43.494Z,99.50
2022-10-01T20:51:58.427Z,99.54
2022-10-01T20:57:14.095Z,99.65
2022-10-01T21:03:01.804Z,99.84
2022-10-01T21:09:02.081Z,100.00
2022-10-01T21:14:20.819Z,100.00
2022-10-01T21:20:02.840Z,100.00
2022-10-01T21:26:19.168Z,100.00
2022-10-01T21:31:33.434Z,100.00
2022-10-01T21:37:03.215Z,100.00
2022-10-01T21:42:16.710Z,100.00
2022-10-01T21:48:04.112Z,100.00
2022-10-01T21:53:57.255Z,100.00
2022-10-01T21:59:11.900Z,100.00
2022-10-01T22:04:38.718Z,100.00
2022-10-01T22:09:53.525Z,100.00
2022-10-01T22:14:59.274Z,100.00
2022-10-01T22:20:04.871Z,100.00
2022-10-01T22:25:28.504Z,100.00
2022-10-01T22:30:34.597Z,100.00
2022-10-01T22:36:15.772Z,100.00
2022-10-01T22:41:47.123Z,100.00
2022-10-01T22:47:50.386Z,100.00
2022-10-01T22:53:50.364Z,100.00
2022-10-01T22:59:12.939Z,100.00
2022-10-01T23:05:08.666Z,100.00
2022-10-01T23:10:47.488Z,100.00
2022-10-01T23:16:14.580Z,100.00
2022-10-01T23:21:42.820Z,100.00
2022-10-01T23:27:19.811Z,100.00
2022-10-01T23:32:51.115Z,100.00
2022-10-01T23:39:01.809Z,100.00
2022-10-01T23:44:52.722Z,100.00
2022-10-01T23:50:27.901Z,100.00
2022-10-01T23:56:01.019Z,100.00
